Wellington, FL

1:35 AM EDT on July 02, 2015 (GMT -0400)
Pinewood West | | Change Station
CLOSE
Current Station
Personal Weather Station
Location: Wellington, FL
Elevation: 43 ft
Nearby Weather Stations

Elev 43 ft 26.68 °N, 80.25 °W | Updated 15 seconds ago

Partly Cloudy
Partly Cloudy
75.2 °F
Feels Like 77 °F
N
0.0
Wind Variable Wind from ESE
Gusts 0.0 mph

Today
High -- | Low -- °F
--% Chance of Precip.
Yesterday
High -- | Low -- °F
Precip. -- in
6:31 AM 8:18 PM
Full, 100% visible
Pressure 30.13 in
Visibility 10.0 miles
Clouds Scattered Clouds 25000 ft
Heat Index 77 °F
Dew Point 44 °F
Humidity 33%
Rainfall 0.00 in
Snow Depth Not available.
UV 0.0 out of 12
Pollen 3.80 out of 12
Air Quality Not available.
Flu Activity Not available.
METAR KPBI 020453Z 13007KT 10SM SCT250 28/24 A3013 RMK AO2 SLP201 T02780244 403280222

More Conditions Fewer Conditions

Pressure 30.13 in
Visibility 10.0 miles
Clouds Scattered Clouds 25000 ft
Heat Index 77 °F
Dew Point 44 °F
Humidity 33%
Rainfall 0.00 in
Snow Depth Not available.
UV 0.0 out of 12
Pollen 3.80 out of 12
Air Quality Not available.
Flu Activity Not available.
METAR KPBI 020453Z 13007KT 10SM SCT250 28/24 A3013 RMK AO2 SLP201 T02780244 403280222

More Conditions Fewer Conditions

10-Day Weather Forecast

×

Almanac

Astronomy

Jul. 02, 2015 Rise Set
Actual Time
Civil Twilight
Nautical Twilight
Astronomical Twilight
Moon
Length of Visible Light
Length of Day
Tomorrow will be .
, % of the Moon is Illuminated

Today's Extremes

State Highs State Lows

Community

WunderPhotos

Upload Photos

1,834,423 photos uploaded!

WunderBlogs® & News

Nearby

Air Quality

  Air Quality AQ Index Pollutant
Not available.

Snow Depth

Station Depth Elevation

Earthquake Activity

City Distance Mag. Time & Date
Minimum magnitude displayed is 2.5.

Coastal Water Temperatures

Place Temperature

Stations

Nearby Weather Stations

Station Location Temp. Windchill Dew Point Humidity Wind Precip. Elev Updated Type